sensor_id;sensor_type;location;lat;lon;timestamp;pressure;altitude;pressure_sealevel;temperature;humidity
48872;BME280;36154;51.674;7.824;2023-05-23T00:01:57;100763.53;;;21.25;51.60
48872;BME280;36154;51.674;7.824;2023-05-23T00:04:23;100769.63;;;21.24;51.61
48872;BME280;36154;51.674;7.824;2023-05-23T00:06:50;100766.22;;;21.22;51.64
48872;BME280;36154;51.674;7.824;2023-05-23T00:09:17;100765.41;;;21.20;51.74
48872;BME280;36154;51.674;7.824;2023-05-23T00:11:43;100758.59;;;21.17;51.75
48872;BME280;36154;51.674;7.824;2023-05-23T00:14:13;100764.72;;;21.15;51.91
48872;BME280;36154;51.674;7.824;2023-05-23T00:16:40;100762.22;;;21.12;51.94
48872;BME280;36154;51.674;7.824;2023-05-23T00:19:07;100767.47;;;21.09;52.02
48872;BME280;36154;51.674;7.824;2023-05-23T00:21:33;100773.59;;;21.06;52.00
48872;BME280;36154;51.674;7.824;2023-05-23T00:23:58;100768.56;;;21.01;52.25
48872;BME280;36154;51.674;7.824;2023-05-23T00:26:23;100767.78;;;20.98;52.54
48872;BME280;36154;51.674;7.824;2023-05-23T00:28:49;100768.69;;;20.97;52.53
48872;BME280;36154;51.674;7.824;2023-05-23T00:31:14;100781.75;;;20.94;52.53
48872;BME280;36154;51.674;7.824;2023-05-23T00:33:39;100790.47;;;20.90;52.59
48872;BME280;36154;51.674;7.824;2023-05-23T00:36:05;100786.25;;;20.87;52.68
48872;BME280;36154;51.674;7.824;2023-05-23T00:38:30;100791.50;;;20.84;52.65
48872;BME280;36154;51.674;7.824;2023-05-23T00:40:55;100783.81;;;20.81;52.71
48872;BME280;36154;51.674;7.824;2023-05-23T00:43:21;100786.47;;;20.78;52.64
48872;BME280;36154;51.674;7.824;2023-05-23T00:45:47;100779.69;;;20.74;52.68
48872;BME280;36154;51.674;7.824;2023-05-23T00:48:13;100782.41;;;20.69;52.59
48872;BME280;36154;51.674;7.824;2023-05-23T00:50:39;100783.31;;;20.66;52.64
48872;BME280;36154;51.674;7.824;2023-05-23T00:53:04;100790.28;;;20.64;52.61
48872;BME280;36154;51.674;7.824;2023-05-23T00:55:31;100786.06;;;20.62;52.60
48872;BME280;36154;51.674;7.824;2023-05-23T00:57:56;100788.69;;;20.60;52.59
48872;BME280;36154;51.674;7.824;2023-05-23T01:00:24;100785.25;;;20.58;52.56
48872;BME280;36154;51.674;7.824;2023-05-23T01:02:50;100799.03;;;20.60;52.58
48872;BME280;36154;51.674;7.824;2023-05-23T01:05:16;100802.44;;;20.62;52.44
48872;BME280;36154;51.674;7.824;2023-05-23T01:07:48;100798.94;;;20.63;52.42
48872;BME280;36154;51.674;7.824;2023-05-23T01:10:16;100800.69;;;20.63;52.46
48872;BME280;36154;51.674;7.824;2023-05-23T01:13:03;100804.97;;;20.64;52.39
48872;BME280;36154;51.674;7.824;2023-05-23T01:15:44;100805.91;;;20.61;52.15
48872;BME280;36154;51.674;7.824;2023-05-23T01:18:27;100809.41;;;20.60;52.12
48872;BME280;36154;51.674;7.824;2023-05-23T01:20:56;100805.97;;;20.58;52.10
48872;BME280;36154;51.674;7.824;2023-05-23T01:24:00;100810.31;;;20.58;51.93
48872;BME280;36154;51.674;7.824;2023-05-23T01:29:03;100811.16;;;20.58;51.91
48872;BME280;36154;51.674;7.824;2023-05-23T01:31:36;100813.66;;;20.61;51.80
48872;BME280;36154;51.674;7.824;2023-05-23T01:34:02;100804.13;;;20.63;51.62
48872;BME280;36154;51.674;7.824;2023-05-23T01:36:28;100807.53;;;20.65;51.44
48872;BME280;36154;51.674;7.824;2023-05-23T01:38:53;100808.34;;;20.67;51.21
48872;BME280;36154;51.674;7.824;2023-05-23T01:41:19;100810.03;;;20.68;51.37
48872;BME280;36154;51.674;7.824;2023-05-23T01:43:44;100816.91;;;20.70;51.26
48872;BME280;36154;51.674;7.824;2023-05-23T01:46:11;100819.50;;;20.70;50.97
48872;BME280;36154;51.674;7.824;2023-05-23T01:48:38;100817.75;;;20.70;51.10
48872;BME280;36154;51.674;7.824;2023-05-23T01:51:05;100823.00;;;20.68;51.04
48872;BME280;36154;51.674;7.824;2023-05-23T01:53:31;100815.38;;;20.62;51.14
48872;BME280;36154;51.674;7.824;2023-05-23T01:55:57;100819.56;;;20.66;51.14
48872;BME280;36154;51.674;7.824;2023-05-23T01:58:22;100818.72;;;20.66;51.01
48872;BME280;36154;51.674;7.824;2023-05-23T02:00:48;100829.03;;;20.67;50.98
48872;BME280;36154;51.674;7.824;2023-05-23T02:03:13;100819.56;;;20.66;51.00
48872;BME280;36154;51.674;7.824;2023-05-23T02:05:39;100828.25;;;20.65;51.02
48872;BME280;36154;51.674;7.824;2023-05-23T02:08:04;100820.50;;;20.64;51.02
48872;BME280;36154;51.674;7.824;2023-05-23T02:10:29;100830.00;;;20.63;51.17
48872;BME280;36154;51.674;7.824;2023-05-23T02:12:55;100831.78;;;20.61;51.35
48872;BME280;36154;51.674;7.824;2023-05-23T02:15:20;100829.19;;;20.61;51.26
48872;BME280;36154;51.674;7.824;2023-05-23T02:17:45;100839.56;;;20.61;51.54
48872;BME280;36154;51.674;7.824;2023-05-23T02:20:12;100829.19;;;20.61;51.42
48872;BME280;36154;51.674;7.824;2023-05-23T02:22:38;100830.09;;;20.60;51.49
48872;BME280;36154;51.674;7.824;2023-05-23T02:25:04;100824.13;;;20.57;51.62
48872;BME280;36154;51.674;7.824;2023-05-23T02:27:30;100835.44;;;20.54;51.76
48872;BME280;36154;51.674;7.824;2023-05-23T02:29:55;100829.44;;;20.52;51.85
48872;BME280;36154;51.674;7.824;2023-05-23T02:32:20;100832.94;;;20.49;51.81
48872;BME280;36154;51.674;7.824;2023-05-23T02:34:46;100826.94;;;20.49;51.84
48872;BME280;36154;51.674;7.824;2023-05-23T02:37:14;100831.31;;;20.47;51.74
48872;BME280;36154;51.674;7.824;2023-05-23T02:39:41;100821.00;;;20.44;51.40
48872;BME280;36154;51.674;7.824;2023-05-23T02:42:06;100833.16;;;20.40;52.23
48872;BME280;36154;51.674;7.824;2023-05-23T02:44:32;100831.53;;;20.36;52.08
48872;BME280;36154;51.674;7.824;2023-05-23T02:46:57;100835.06;;;20.34;52.22
48872;BME280;36154;51.674;7.824;2023-05-23T02:49:22;100837.72;;;20.30;52.46
48872;BME280;36154;51.674;7.824;2023-05-23T02:51:47;100831.78;;;20.27;52.65
48872;BME280;36154;51.674;7.824;2023-05-23T02:54:13;100836.94;;;20.27;52.76
48872;BME280;36154;51.674;7.824;2023-05-23T02:56:38;100830.09;;;20.24;52.79
48872;BME280;36154;51.674;7.824;2023-05-23T02:59:06;100837.00;;;20.24;52.82
48872;BME280;36154;51.674;7.824;2023-05-23T03:01:31;100830.91;;;20.26;53.15
48872;BME280;36154;51.674;7.824;2023-05-23T03:03:56;100829.16;;;20.28;52.84
48872;BME280;36154;51.674;7.824;2023-05-23T03:06:22;100831.75;;;20.28;52.81
48872;BME280;36154;51.674;7.824;2023-05-23T03:08:47;100832.63;;;20.27;52.90
48872;BME280;36154;51.674;7.824;2023-05-23T03:11:12;100834.31;;;20.28;53.06
48872;BME280;36154;51.674;7.824;2023-05-23T03:13:38;100836.06;;;20.26;53.34
48872;BME280;36154;51.674;7.824;2023-05-23T03:16:03;100837.78;;;20.27;53.11
48872;BME280;36154;51.674;7.824;2023-05-23T03:18:28;100839.56;;;20.25;53.15
48872;BME280;36154;51.674;7.824;2023-05-23T03:20:53;100837.00;;;20.24;53.27
48872;BME280;36154;51.674;7.824;2023-05-23T03:23:19;100834.47;;;20.22;53.30
48872;BME280;36154;51.674;7.824;2023-05-23T03:25:44;100825.91;;;20.20;53.33
48872;BME280;36154;51.674;7.824;2023-05-23T03:28:10;100832.75;;;20.21;53.43
48872;BME280;36154;51.674;7.824;2023-05-23T03:30:37;100831.94;;;20.19;53.55
48872;BME280;36154;51.674;7.824;2023-05-23T03:33:02;100847.53;;;20.16;53.56
48872;BME280;36154;51.674;7.824;2023-05-23T03:35:28;100850.13;;;20.16;53.69
48872;BME280;36154;51.674;7.824;2023-05-23T03:37:53;100846.66;;;20.17;53.74
48872;BME280;36154;51.674;7.824;2023-05-23T03:40:19;100841.63;;;20.11;53.65
48872;BME280;36154;51.674;7.824;2023-05-23T03:42:47;100853.50;;;20.18;53.89
48872;BME280;36154;51.674;7.824;2023-05-23T03:45:12;100862.13;;;20.20;54.01
48872;BME280;36154;51.674;7.824;2023-05-23T03:47:37;100844.88;;;20.19;53.94
48872;BME280;36154;51.674;7.824;2023-05-23T03:50:03;100848.28;;;20.21;53.75
48872;BME280;36154;51.674;7.824;2023-05-23T03:52:28;100849.09;;;20.23;53.79
48872;BME280;36154;51.674;7.824;2023-05-23T03:54:53;100857.72;;;20.24;53.90
48872;BME280;36154;51.674;7.824;2023-05-23T03:57:19;100862.84;;;20.25;53.92
48872;BME280;36154;51.674;7.824;2023-05-23T03:59:45;100861.94;;;20.26;53.81
48872;BME280;36154;51.674;7.824;2023-05-23T04:02:10;100863.72;;;20.24;53.77
48872;BME280;36154;51.674;7.824;2023-05-23T04:04:35;100874.00;;;20.27;53.94
48872;BME280;36154;51.674;7.824;2023-05-23T04:07:01;100876.59;;;20.27;53.85
48872;BME280;36154;51.674;7.824;2023-05-23T04:09:26;100869.69;;;20.28;53.96
48872;BME280;36154;51.674;7.824;2023-05-23T04:11:51;100877.44;;;20.28;53.74
48872;BME280;36154;51.674;7.824;2023-05-23T04:14:17;100870.56;;;20.28;53.95
48872;BME280;36154;51.674;7.824;2023-05-23T04:16:44;100874.81;;;20.29;53.98
48872;BME280;36154;51.674;7.824;2023-05-23T04:19:09;100881.69;;;20.30;53.91
48872;BME280;36154;51.674;7.824;2023-05-23T04:21:36;100874.75;;;20.33;53.96
48872;BME280;36154;51.674;7.824;2023-05-23T04:24:01;100870.31;;;20.38;53.79
48872;BME280;36154;51.674;7.824;2023-05-23T04:26:27;100866.63;;;20.46;53.75
48872;BME280;36154;51.674;7.824;2023-05-23T04:28:53;100871.66;;;20.54;53.74
48872;BME280;36154;51.674;7.824;2023-05-23T04:31:19;100867.16;;;20.62;53.48
48872;BME280;36154;51.674;7.824;2023-05-23T04:33:44;100875.56;;;20.71;53.51
48872;BME280;36154;51.674;7.824;2023-05-23T04:36:10;100889.19;;;20.79;53.51
48872;BME280;36154;51.674;7.824;2023-05-23T04:38:35;100889.84;;;20.87;53.41
48872;BME280;36154;51.674;7.824;2023-05-23T04:41:03;100887.94;;;20.94;53.45
48872;BME280;36154;51.674;7.824;2023-05-23T04:43:30;100899.03;;;20.99;53.09
48872;BME280;36154;51.674;7.824;2023-05-23T04:45:57;100896.28;;;21.03;53.04
48872;BME280;36154;51.674;7.824;2023-05-23T04:48:23;100894.53;;;21.05;52.61
48872;BME280;36154;51.674;7.824;2023-05-23T04:50:48;100898.75;;;21.08;52.80
48872;BME280;36154;51.674;7.824;2023-05-23T04:53:15;100903.03;;;21.11;52.55
48872;BME280;36154;51.674;7.824;2023-05-23T04:55:40;100896.06;;;21.13;52.52
48872;BME280;36154;51.674;7.824;2023-05-23T04:58:05;100918.38;;;21.17;52.47
48872;BME280;36154;51.674;7.824;2023-05-23T05:00:32;100908.84;;;21.19;52.16
48872;BME280;36154;51.674;7.824;2023-05-23T05:02:57;100907.94;;;21.20;52.19
48872;BME280;36154;51.674;7.824;2023-05-23T05:05:22;100904.50;;;21.19;52.11
48872;BME280;36154;51.674;7.824;2023-05-23T05:07:47;100907.09;;;21.19;52.10
48872;BME280;36154;51.674;7.824;2023-05-23T05:10:13;100902.69;;;21.23;51.91
48872;BME280;36154;51.674;7.824;2023-05-23T05:12:43;100905.19;;;21.26;51.78
48872;BME280;36154;51.674;7.824;2023-05-23T05:15:09;100908.63;;;21.28;51.79
48872;BME280;36154;51.674;7.824;2023-05-23T05:17:34;100914.63;;;21.29;51.59
48872;BME280;36154;51.674;7.824;2023-05-23T05:20:02;100918.09;;;21.29;51.54
48872;BME280;36154;51.674;7.824;2023-05-23T05:22:31;100923.28;;;21.28;50.91
48872;BME280;36154;51.674;7.824;2023-05-23T05:24:56;100920.75;;;21.26;51.47
48872;BME280;36154;51.674;7.824;2023-05-23T05:27:21;100919.81;;;21.27;51.50
48872;BME280;36154;51.674;7.824;2023-05-23T05:29:46;100928.47;;;21.28;51.44
48872;BME280;36154;51.674;7.824;2023-05-23T05:32:14;100927.56;;;21.30;51.37
48872;BME280;36154;51.674;7.824;2023-05-23T05:34:40;100937.88;;;21.32;51.29
48872;BME280;36154;51.674;7.824;2023-05-23T05:37:07;100933.47;;;21.35;51.24
48872;BME280;36154;51.674;7.824;2023-05-23T05:39:32;100930.88;;;21.35;50.98
48872;BME280;36154;51.674;7.824;2023-05-23T05:41:58;100935.13;;;21.38;51.15
48872;BME280;36154;51.674;7.824;2023-05-23T05:44:25;100944.63;;;21.39;50.88
48872;BME280;36154;51.674;7.824;2023-05-23T05:46:51;100940.25;;;21.41;50.96
48872;BME280;36154;51.674;7.824;2023-05-23T05:49:16;100940.19;;;21.42;50.95
48872;BME280;36154;51.674;7.824;2023-05-23T05:51:41;100954.84;;;21.44;50.74
48872;BME280;36154;51.674;7.824;2023-05-23T05:54:06;100953.97;;;21.45;50.63
48872;BME280;36154;51.674;7.824;2023-05-23T05:56:32;100954.78;;;21.45;50.73
48872;BME280;36154;51.674;7.824;2023-05-23T05:58:57;100958.25;;;21.46;50.70
48872;BME280;36154;51.674;7.824;2023-05-23T06:01:23;100965.13;;;21.47;50.51
48872;BME280;36154;51.674;7.824;2023-05-23T06:03:49;100964.22;;;21.49;50.31
48872;BME280;36154;51.674;7.824;2023-05-23T06:06:15;100958.16;;;21.49;50.49
48872;BME280;36154;51.674;7.824;2023-05-23T06:08:40;100972.00;;;21.49;50.59
48872;BME280;36154;51.674;7.824;2023-05-23T06:11:06;100969.44;;;21.48;50.42
48872;BME280;36154;51.674;7.824;2023-05-23T06:13:31;100967.66;;;21.50;50.38
48872;BME280;36154;51.674;7.824;2023-05-23T06:15:57;100966.75;;;21.51;50.23
48872;BME280;36154;51.674;7.824;2023-05-23T06:18:22;100972.81;;;21.50;50.29
48872;BME280;36154;51.674;7.824;2023-05-23T06:20:48;100974.53;;;21.51;50.38
48872;BME280;36154;51.674;7.824;2023-05-23T06:23:13;100972.81;;;21.50;50.40
48872;BME280;36154;51.674;7.824;2023-05-23T06:25:38;100965.06;;;21.50;50.23
48872;BME280;36154;51.674;7.824;2023-05-23T06:28:03;100973.72;;;21.49;50.18
48872;BME280;36154;51.674;7.824;2023-05-23T06:30:29;100971.13;;;21.49;50.29
48872;BME280;36154;51.674;7.824;2023-05-23T06:32:54;100972.00;;;21.49;50.14
48872;BME280;36154;51.674;7.824;2023-05-23T06:35:20;100975.41;;;21.50;50.13
48872;BME280;36154;51.674;7.824;2023-05-23T06:37:45;100992.66;;;21.52;49.99
48872;BME280;36154;51.674;7.824;2023-05-23T06:40:11;100982.22;;;21.54;50.13
48872;BME280;36154;51.674;7.824;2023-05-23T06:42:38;100982.28;;;21.52;49.86
48872;BME280;36154;51.674;7.824;2023-05-23T06:45:04;100998.59;;;21.56;49.88
48872;BME280;36154;51.674;7.824;2023-05-23T06:47:29;101001.16;;;21.57;49.83
48872;BME280;36154;51.674;7.824;2023-05-23T06:49:55;101000.31;;;21.55;49.85
48872;BME280;36154;51.674;7.824;2023-05-23T06:52:20;101005.38;;;21.60;49.71
48872;BME280;36154;51.674;7.824;2023-05-23T06:54:46;101013.13;;;21.62;49.67
48872;BME280;36154;51.674;7.824;2023-05-23T06:57:11;101008.78;;;21.62;49.60
48872;BME280;36154;51.674;7.824;2023-05-23T06:59:36;101019.16;;;21.62;49.62
48872;BME280;36154;51.674;7.824;2023-05-23T07:02:01;101027.75;;;21.64;49.58
48872;BME280;36154;51.674;7.824;2023-05-23T07:04:27;101023.41;;;21.65;49.46
48872;BME280;36154;51.674;7.824;2023-05-23T07:06:52;101029.44;;;21.65;49.28
48872;BME280;36154;51.674;7.824;2023-05-23T07:09:17;101026.84;;;21.65;49.37
48872;BME280;36154;51.674;7.824;2023-05-23T07:11:45;101029.44;;;21.65;49.28
48872;BME280;36154;51.674;7.824;2023-05-23T07:14:10;101036.34;;;21.66;49.13
48872;BME280;36154;51.674;7.824;2023-05-23T07:16:35;101034.59;;;21.67;48.91
48872;BME280;36154;51.674;7.824;2023-05-23T07:19:01;101043.22;;;21.67;48.90
48872;BME280;36154;51.674;7.824;2023-05-23T07:21:27;101044.94;;;21.68;48.80
48872;BME280;36154;51.674;7.824;2023-05-23T07:23:52;101050.13;;;21.68;48.74
48872;BME280;36154;51.674;7.824;2023-05-23T07:26:17;101053.59;;;21.67;48.75
48872;BME280;36154;51.674;7.824;2023-05-23T07:28:43;101051.88;;;21.68;48.55
48872;BME280;36154;51.674;7.824;2023-05-23T07:31:08;101063.09;;;21.68;48.61
48872;BME280;36154;51.674;7.824;2023-05-23T07:33:33;101056.13;;;21.69;48.62
48872;BME280;36154;51.674;7.824;2023-05-23T07:35:59;101052.66;;;21.70;48.46
48872;BME280;36154;51.674;7.824;2023-05-23T07:38:28;101064.78;;;21.69;48.45
48872;BME280;36154;51.674;7.824;2023-05-23T07:40:53;101073.41;;;21.70;48.37
48872;BME280;36154;51.674;7.824;2023-05-23T07:43:18;101070.81;;;21.70;48.31
48872;BME280;36154;51.674;7.824;2023-05-23T07:45:44;101063.03;;;21.70;48.22
48872;BME280;36154;51.674;7.824;2023-05-23T07:48:09;101069.06;;;21.70;48.34
48872;BME280;36154;51.674;7.824;2023-05-23T07:50:36;101071.66;;;21.70;48.32
48872;BME280;36154;51.674;7.824;2023-05-23T07:53:01;101086.34;;;21.71;48.24
48872;BME280;36154;51.674;7.824;2023-05-23T07:55:26;101080.31;;;21.71;48.15
48872;BME280;36154;51.674;7.824;2023-05-23T07:57:52;101085.50;;;21.71;48.11
48872;BME280;36154;51.674;7.824;2023-05-23T08:00:19;101083.78;;;21.70;48.28
48872;BME280;36154;51.674;7.824;2023-05-23T08:02:44;101091.53;;;21.71;48.02
48872;BME280;36154;51.674;7.824;2023-05-23T08:05:09;101096.78;;;21.68;48.00
48872;BME280;36154;51.674;7.824;2023-05-23T08:07:35;101101.06;;;21.71;47.94
48872;BME280;36154;51.674;7.824;2023-05-23T08:10:00;101090.72;;;21.69;47.87
48872;BME280;36154;51.674;7.824;2023-05-23T08:12:25;101095.91;;;21.69;47.71
48872;BME280;36154;51.674;7.824;2023-05-23T08:14:51;101104.53;;;21.70;47.79
48872;BME280;36154;51.674;7.824;2023-05-23T08:17:16;101108.88;;;21.69;47.71
48872;BME280;36154;51.674;7.824;2023-05-23T08:19:41;101105.38;;;21.70;47.49
48872;BME280;36154;51.674;7.824;2023-05-23T08:22:07;101116.63;;;21.71;47.57
48872;BME280;36154;51.674;7.824;2023-05-23T08:24:33;101111.47;;;21.69;47.62
48872;BME280;36154;51.674;7.824;2023-05-23T08:26:58;101131.31;;;21.70;47.60
48872;BME280;36154;51.674;7.824;2023-05-23T08:29:26;101124.44;;;21.69;47.53
48872;BME280;36154;51.674;7.824;2023-05-23T08:31:52;101127.91;;;21.68;47.19
48872;BME280;36154;51.674;7.824;2023-05-23T08:34:17;101127.91;;;21.68;47.38
48872;BME280;36154;51.674;7.824;2023-05-23T08:36:43;101124.47;;;21.68;47.59
48872;BME280;36154;51.674;7.824;2023-05-23T08:39:08;101116.69;;;21.68;47.34
48872;BME280;36154;51.674;7.824;2023-05-23T08:41:34;101129.63;;;21.69;47.35
48872;BME280;36154;51.674;7.824;2023-05-23T08:44:00;101133.09;;;21.68;47.33
48872;BME280;36154;51.674;7.824;2023-05-23T08:46:25;101133.94;;;21.69;47.24
48872;BME280;36154;51.674;7.824;2023-05-23T08:48:54;101133.94;;;21.69;47.20
48872;BME280;36154;51.674;7.824;2023-05-23T08:51:21;101140.00;;;21.69;47.10
48872;BME280;36154;51.674;7.824;2023-05-23T08:53:49;101149.50;;;21.69;47.06
48872;BME280;36154;51.674;7.824;2023-05-23T08:56:15;101139.16;;;21.67;46.96
48872;BME280;36154;51.674;7.824;2023-05-23T08:58:41;101145.25;;;21.66;46.96
48872;BME280;36154;51.674;7.824;2023-05-23T09:01:08;101146.91;;;21.69;46.91
48872;BME280;36154;51.674;7.824;2023-05-23T09:03:35;101152.97;;;21.69;46.86
48872;BME280;36154;51.674;7.824;2023-05-23T09:06:09;101150.38;;;21.69;46.88
48872;BME280;36154;51.674;7.824;2023-05-23T09:08:35;101158.16;;;21.69;46.91
48872;BME280;36154;51.674;7.824;2023-05-23T09:11:01;101161.59;;;21.70;46.86
48872;BME280;36154;51.674;7.824;2023-05-23T09:13:28;101160.75;;;21.69;46.89
48872;BME280;36154;51.674;7.824;2023-05-23T09:18:24;101172.81;;;21.70;46.72
48872;BME280;36154;51.674;7.824;2023-05-23T09:20:50;101191.88;;;21.69;46.57
48872;BME280;36154;51.674;7.824;2023-05-23T09:23:15;101177.19;;;21.68;46.73
48872;BME280;36154;51.674;7.824;2023-05-23T09:25:46;101188.44;;;21.67;46.58
48872;BME280;36154;51.674;7.824;2023-05-23T09:28:12;101190.16;;;21.68;46.47
48872;BME280;36154;51.674;7.824;2023-05-23T09:30:38;101195.34;;;21.68;46.79
48872;BME280;36154;51.674;7.824;2023-05-23T09:33:03;101202.28;;;21.68;46.59
48872;BME280;36154;51.674;7.824;2023-05-23T09:35:29;101198.81;;;21.67;46.57
48872;BME280;36154;51.674;7.824;2023-05-23T09:37:56;101196.22;;;21.67;46.38
48872;BME280;36154;51.674;7.824;2023-05-23T09:40:28;101194.50;;;21.68;46.36
48872;BME280;36154;51.674;7.824;2023-05-23T09:42:54;101205.72;;;21.68;46.50
48872;BME280;36154;51.674;7.824;2023-05-23T09:45:19;101196.22;;;21.67;46.42
48872;BME280;36154;51.674;7.824;2023-05-23T09:47:53;101195.34;;;21.68;46.24
48872;BME280;36154;51.674;7.824;2023-05-23T09:50:19;101207.44;;;21.69;46.28
48872;BME280;36154;51.674;7.824;2023-05-23T09:52:45;101210.91;;;21.68;46.35
48872;BME280;36154;51.674;7.824;2023-05-23T09:55:11;101216.09;;;21.68;46.20
48872;BME280;36154;51.674;7.824;2023-05-23T09:57:41;101216.09;;;21.68;46.32
48872;BME280;36154;51.674;7.824;2023-05-23T10:00:07;101226.47;;;21.68;46.20
48872;BME280;36154;51.674;7.824;2023-05-23T10:05:37;101224.72;;;21.69;45.94
48872;BME280;36154;51.674;7.824;2023-05-23T10:08:10;101229.06;;;21.68;45.87
48872;BME280;36154;51.674;7.824;2023-05-23T10:13:40;101229.94;;;21.67;45.91
48872;BME280;36154;51.674;7.824;2023-05-23T10:16:14;101227.34;;;21.67;45.68
48872;BME280;36154;51.674;7.824;2023-05-23T10:18:43;101233.44;;;21.66;45.67
48872;BME280;36154;51.674;7.824;2023-05-23T10:21:11;101240.34;;;21.66;45.57
48872;BME280;36154;51.674;7.824;2023-05-23T10:23:41;101244.66;;;21.67;45.39
48872;BME280;36154;51.674;7.824;2023-05-23T10:26:06;101236.00;;;21.68;45.46
48872;BME280;36154;51.674;7.824;2023-05-23T10:28:32;101241.13;;;21.71;45.63
48872;BME280;36154;51.674;7.824;2023-05-23T10:30:58;101234.16;;;21.73;45.77
48872;BME280;36154;51.674;7.824;2023-05-23T10:33:25;101234.16;;;21.73;45.67
48872;BME280;36154;51.674;7.824;2023-05-23T10:36:09;101237.44;;;21.79;45.33
48872;BME280;36154;51.674;7.824;2023-05-23T10:38:54;101239.13;;;21.81;45.25
48872;BME280;36154;51.674;7.824;2023-05-23T10:41:28;101246.84;;;21.84;45.17
48872;BME280;36154;51.674;7.824;2023-05-23T10:44:19;101239.94;;;21.84;44.90
48872;BME280;36154;51.674;7.824;2023-05-23T10:46:58;101243.28;;;21.88;44.78
48872;BME280;36154;51.674;7.824;2023-05-23T10:49:38;101248.44;;;21.89;44.54
48872;BME280;36154;51.674;7.824;2023-05-23T10:52:04;101245.81;;;21.91;44.71
48872;BME280;36154;51.674;7.824;2023-05-23T10:54:35;101247.47;;;21.93;44.58
48872;BME280;36154;51.674;7.824;2023-05-23T10:57:04;101243.13;;;21.94;44.41
48872;BME280;36154;51.674;7.824;2023-05-23T10:59:30;101250.03;;;21.95;44.31
48872;BME280;36154;51.674;7.824;2023-05-23T11:01:55;101262.06;;;21.97;44.29
48872;BME280;36154;51.674;7.824;2023-05-23T11:04:28;101262.00;;;21.99;43.90
48872;BME280;36154;51.674;7.824;2023-05-23T11:06:54;101255.06;;;22.01;43.80
48872;BME280;36154;51.674;7.824;2023-05-23T11:09:20;101252.50;;;22.00;43.91
48872;BME280;36154;51.674;7.824;2023-05-23T11:12:02;101258.47;;;22.03;43.48
48872;BME280;36154;51.674;7.824;2023-05-23T11:17:31;101254.97;;;22.04;43.34
48872;BME280;36154;51.674;7.824;2023-05-23T11:19:59;101255.84;;;22.05;43.17
48872;BME280;36154;51.674;7.824;2023-05-23T11:22:29;101262.72;;;22.06;43.34
48872;BME280;36154;51.674;7.824;2023-05-23T11:24:56;101264.47;;;22.07;43.06
48872;BME280;36154;51.674;7.824;2023-05-23T11:27:31;101268.78;;;22.08;43.08
48872;BME280;36154;51.674;7.824;2023-05-23T11:30:16;101269.66;;;22.07;43.14
48872;BME280;36154;51.674;7.824;2023-05-23T11:32:47;101274.84;;;22.07;43.14
48872;BME280;36154;51.674;7.824;2023-05-23T11:35:15;101280.00;;;22.08;43.24
48872;BME280;36154;51.674;7.824;2023-05-23T11:37:42;101272.22;;;22.08;43.12
48872;BME280;36154;51.674;7.824;2023-05-23T11:40:33;101272.22;;;22.08;42.80
48872;BME280;36154;51.674;7.824;2023-05-23T11:43:01;101280.81;;;22.10;43.11
48872;BME280;36154;51.674;7.824;2023-05-23T11:45:28;101279.13;;;22.09;43.10
48872;BME280;36154;51.674;7.824;2023-05-23T11:47:54;101292.91;;;22.11;43.63
48872;BME280;36154;51.674;7.824;2023-05-23T11:50:19;101289.41;;;22.12;43.33
48872;BME280;36154;51.674;7.824;2023-05-23T11:52:46;101294.59;;;22.12;43.42
48872;BME280;36154;51.674;7.824;2023-05-23T11:55:16;101298.88;;;22.15;43.37
48872;BME280;36154;51.674;7.824;2023-05-23T11:57:42;101307.50;;;22.15;43.46
48872;BME280;36154;51.674;7.824;2023-05-23T12:00:08;101310.03;;;22.19;43.47
48872;BME280;36154;51.674;7.824;2023-05-23T12:02:41;101311.72;;;22.20;43.50
48872;BME280;36154;51.674;7.824;2023-05-23T12:05:12;101309.94;;;22.22;43.51
48872;BME280;36154;51.674;7.824;2023-05-23T12:10:08;101306.47;;;22.23;43.44
48872;BME280;36154;51.674;7.824;2023-05-23T12:12:34;101318.53;;;22.24;43.22
48872;BME280;36154;51.674;7.824;2023-05-23T12:15:00;101317.63;;;22.26;43.02
48872;BME280;36154;51.674;7.824;2023-05-23T12:17:25;101314.09;;;22.29;42.57
48872;BME280;36154;51.674;7.824;2023-05-23T12:19:51;101314.00;;;22.32;42.20
48872;BME280;36154;51.674;7.824;2023-05-23T12:22:21;101313.13;;;22.33;42.01
48872;BME280;36154;51.674;7.824;2023-05-23T12:24:47;101313.97;;;22.33;42.04
48872;BME280;36154;51.674;7.824;2023-05-23T12:27:15;101312.19;;;22.36;41.82
48872;BME280;36154;51.674;7.824;2023-05-23T12:29:41;101307.78;;;22.38;41.64
48872;BME280;36154;51.674;7.824;2023-05-23T12:32:07;101306.88;;;22.40;41.56
48872;BME280;36154;51.674;7.824;2023-05-23T12:34:32;101315.50;;;22.41;41.49
48872;BME280;36154;51.674;7.824;2023-05-23T12:37:00;101307.69;;;22.42;41.37
48872;BME280;36154;51.674;7.824;2023-05-23T12:39:27;101303.41;;;22.41;40.79
48872;BME280;36154;51.674;7.824;2023-05-23T12:41:53;101297.31;;;22.42;40.95
48872;BME280;36154;51.674;7.824;2023-05-23T12:44:22;101295.53;;;22.43;40.64
48872;BME280;36154;51.674;7.824;2023-05-23T12:46:48;101296.38;;;22.45;40.98
48872;BME280;36154;51.674;7.824;2023-05-23T12:49:13;101293.78;;;22.45;41.10
48872;BME280;36154;51.674;7.824;2023-05-23T12:51:39;101288.59;;;22.45;41.36
48872;BME280;36154;51.674;7.824;2023-05-23T12:54:04;101291.19;;;22.45;41.25
48872;BME280;36154;51.674;7.824;2023-05-23T12:56:30;101284.25;;;22.45;41.01
48872;BME280;36154;51.674;7.824;2023-05-23T12:58:55;101285.13;;;22.44;40.92
48872;BME280;36154;51.674;7.824;2023-05-23T13:01:21;101290.31;;;22.44;40.98
48872;BME280;36154;51.674;7.824;2023-05-23T13:03:46;101290.31;;;22.44;40.96
48872;BME280;36154;51.674;7.824;2023-05-23T13:06:11;101288.59;;;22.45;40.77